sensor_id;sensor_type;location;lat;lon;timestamp;P1;durP1;ratioP1;P2;durP2;ratioP2
76459;SDS011;65299;46.084;18.762;2024-02-21T00:01:14;57.70;;;29.30;;
76459;SDS011;65299;46.084;18.762;2024-02-21T00:04:16;48.80;;;26.30;;
76459;SDS011;65299;46.084;18.762;2024-02-21T00:07:16;45.00;;;25.55;;
76459;SDS011;65299;46.084;18.762;2024-02-21T00:10:17;31.63;;;17.17;;
76459;SDS011;65299;46.084;18.762;2024-02-21T00:13:18;33.78;;;18.13;;
76459;SDS011;65299;46.084;18.762;2024-02-21T00:16:18;54.83;;;28.63;;
76459;SDS011;65299;46.084;18.762;2024-02-21T00:19:19;21.40;;;11.17;;
76459;SDS011;65299;46.084;18.762;2024-02-21T00:22:19;19.50;;;9.17;;
76459;SDS011;65299;46.084;18.762;2024-02-21T00:25:19;10.80;;;5.03;;
76459;SDS011;65299;46.084;18.762;2024-02-21T00:28:20;3.83;;;1.97;;
76459;SDS011;65299;46.084;18.762;2024-02-21T00:31:21;4.32;;;2.08;;
76459;SDS011;65299;46.084;18.762;2024-02-21T00:34:21;4.07;;;1.70;;
76459;SDS011;65299;46.084;18.762;2024-02-21T00:37:21;3.10;;;1.13;;
76459;SDS011;65299;46.084;18.762;2024-02-21T00:40:22;4.30;;;1.50;;
76459;SDS011;65299;46.084;18.762;2024-02-21T00:43:23;2.95;;;1.45;;
76459;SDS011;65299;46.084;18.762;2024-02-21T00:46:24;2.33;;;1.20;;
76459;SDS011;65299;46.084;18.762;2024-02-21T00:49:24;3.60;;;1.17;;
76459;SDS011;65299;46.084;18.762;2024-02-21T00:52:25;2.37;;;1.00;;
76459;SDS011;65299;46.084;18.762;2024-02-21T00:55:25;4.53;;;2.70;;
76459;SDS011;65299;46.084;18.762;2024-02-21T00:58:25;5.33;;;2.17;;
76459;SDS011;65299;46.084;18.762;2024-02-21T01:01:26;3.70;;;2.30;;
76459;SDS011;65299;46.084;18.762;2024-02-21T01:04:26;3.07;;;1.70;;
76459;SDS011;65299;46.084;18.762;2024-02-21T01:07:27;1.07;;;0.63;;
76459;SDS011;65299;46.084;18.762;2024-02-21T01:10:27;1.40;;;0.60;;
76459;SDS011;65299;46.084;18.762;2024-02-21T01:13:28;1.77;;;0.65;;
76459;SDS011;65299;46.084;18.762;2024-02-21T01:16:28;3.00;;;0.50;;
76459;SDS011;65299;46.084;18.762;2024-02-21T01:19:29;4.70;;;0.40;;
76459;SDS011;65299;46.084;18.762;2024-02-21T01:22:29;1.65;;;0.70;;
76459;SDS011;65299;46.084;18.762;2024-02-21T01:25:29;1.87;;;0.63;;
76459;SDS011;65299;46.084;18.762;2024-02-21T01:28:30;3.53;;;0.67;;
76459;SDS011;65299;46.084;18.762;2024-02-21T01:31:30;1.53;;;0.60;;
76459;SDS011;65299;46.084;18.762;2024-02-21T01:34:31;3.10;;;0.90;;
76459;SDS011;65299;46.084;18.762;2024-02-21T01:37:31;1.87;;;0.43;;
76459;SDS011;65299;46.084;18.762;2024-02-21T01:40:32;0.60;;;0.20;;
76459;SDS011;65299;46.084;18.762;2024-02-21T01:43:32;5.43;;;0.50;;
76459;SDS011;65299;46.084;18.762;2024-02-21T01:46:32;1.35;;;0.40;;
76459;SDS011;65299;46.084;18.762;2024-02-21T01:49:34;1.00;;;0.50;;
76459;SDS011;65299;46.084;18.762;2024-02-21T01:52:35;1.40;;;0.63;;
76459;SDS011;65299;46.084;18.762;2024-02-21T01:55:36;1.57;;;0.60;;
76459;SDS011;65299;46.084;18.762;2024-02-21T01:58:37;2.72;;;0.60;;
76459;SDS011;65299;46.084;18.762;2024-02-21T02:01:40;3.10;;;1.10;;
76459;SDS011;65299;46.084;18.762;2024-02-21T02:04:41;3.20;;;1.50;;
76459;SDS011;65299;46.084;18.762;2024-02-21T02:07:42;3.80;;;1.08;;
76459;SDS011;65299;46.084;18.762;2024-02-21T02:10:43;2.50;;;1.30;;
76459;SDS011;65299;46.084;18.762;2024-02-21T02:13:43;2.77;;;1.10;;
76459;SDS011;65299;46.084;18.762;2024-02-21T02:16:47;1.63;;;0.87;;
76459;SDS011;65299;46.084;18.762;2024-02-21T02:19:47;2.00;;;0.73;;
76459;SDS011;65299;46.084;18.762;2024-02-21T02:22:48;2.17;;;0.80;;
76459;SDS011;65299;46.084;18.762;2024-02-21T02:25:49;1.60;;;0.65;;
76459;SDS011;65299;46.084;18.762;2024-02-21T02:28:52;1.92;;;0.88;;
76459;SDS011;65299;46.084;18.762;2024-02-21T02:31:52;2.97;;;0.60;;
76459;SDS011;65299;46.084;18.762;2024-02-21T02:34:53;1.25;;;0.50;;
76459;SDS011;65299;46.084;18.762;2024-02-21T02:37:53;2.30;;;0.87;;
76459;SDS011;65299;46.084;18.762;2024-02-21T02:40:53;4.20;;;0.60;;
76459;SDS011;65299;46.084;18.762;2024-02-21T02:43:54;1.93;;;0.70;;
76459;SDS011;65299;46.084;18.762;2024-02-21T02:46:54;3.60;;;0.55;;
76459;SDS011;65299;46.084;18.762;2024-02-21T02:49:55;1.07;;;0.47;;
76459;SDS011;65299;46.084;18.762;2024-02-21T02:52:55;1.37;;;0.60;;
76459;SDS011;65299;46.084;18.762;2024-02-21T02:55:56;2.57;;;0.73;;
76459;SDS011;65299;46.084;18.762;2024-02-21T02:58:56;1.83;;;0.85;;
76459;SDS011;65299;46.084;18.762;2024-02-21T03:01:56;1.83;;;0.80;;
76459;SDS011;65299;46.084;18.762;2024-02-21T03:04:57;1.90;;;0.60;;
76459;SDS011;65299;46.084;18.762;2024-02-21T03:07:57;1.70;;;0.43;;
76459;SDS011;65299;46.084;18.762;2024-02-21T03:10:58;1.95;;;0.80;;
76459;SDS011;65299;46.084;18.762;2024-02-21T03:13:59;0.98;;;0.30;;
76459;SDS011;65299;46.084;18.762;2024-02-21T03:16:59;4.70;;;0.80;;
76459;SDS011;65299;46.084;18.762;2024-02-21T03:20:03;3.45;;;0.80;;
76459;SDS011;65299;46.084;18.762;2024-02-21T03:23:13;1.50;;;0.40;;
76459;SDS011;65299;46.084;18.762;2024-02-21T03:26:14;4.57;;;0.70;;
76459;SDS011;65299;46.084;18.762;2024-02-21T03:29:17;3.43;;;0.40;;
76459;SDS011;65299;46.084;18.762;2024-02-21T03:32:17;2.65;;;0.60;;
76459;SDS011;65299;46.084;18.762;2024-02-21T03:35:18;1.17;;;0.50;;
76459;SDS011;65299;46.084;18.762;2024-02-21T03:38:18;2.73;;;0.97;;
76459;SDS011;65299;46.084;18.762;2024-02-21T03:41:19;0.98;;;0.30;;
76459;SDS011;65299;46.084;18.762;2024-02-21T03:44:19;3.03;;;0.73;;
76459;SDS011;65299;46.084;18.762;2024-02-21T03:47:20;3.57;;;0.77;;
76459;SDS011;65299;46.084;18.762;2024-02-21T03:50:20;3.65;;;0.70;;
76459;SDS011;65299;46.084;18.762;2024-02-21T03:53:20;0.93;;;0.40;;
76459;SDS011;65299;46.084;18.762;2024-02-21T03:56:21;5.20;;;0.90;;
76459;SDS011;65299;46.084;18.762;2024-02-21T03:59:22;2.73;;;0.80;;
76459;SDS011;65299;46.084;18.762;2024-02-21T04:02:22;3.00;;;0.85;;
76459;SDS011;65299;46.084;18.762;2024-02-21T04:05:23;1.73;;;0.53;;
76459;SDS011;65299;46.084;18.762;2024-02-21T04:08:23;3.63;;;0.80;;
76459;SDS011;65299;46.084;18.762;2024-02-21T04:11:24;8.20;;;1.00;;
76459;SDS011;65299;46.084;18.762;2024-02-21T04:14:24;6.87;;;1.67;;
76459;SDS011;65299;46.084;18.762;2024-02-21T04:17:25;6.15;;;2.40;;
76459;SDS011;65299;46.084;18.762;2024-02-21T04:20:25;1.97;;;0.53;;
76459;SDS011;65299;46.084;18.762;2024-02-21T04:23:26;2.33;;;0.90;;
76459;SDS011;65299;46.084;18.762;2024-02-21T04:26:26;2.20;;;0.50;;
76459;SDS011;65299;46.084;18.762;2024-02-21T04:29:26;4.07;;;0.43;;
76459;SDS011;65299;46.084;18.762;2024-02-21T04:32:28;2.65;;;0.70;;
76459;SDS011;65299;46.084;18.762;2024-02-21T04:35:28;2.30;;;0.60;;
76459;SDS011;65299;46.084;18.762;2024-02-21T04:38:28;1.63;;;0.60;;
76459;SDS011;65299;46.084;18.762;2024-02-21T04:41:29;5.33;;;1.00;;
76459;SDS011;65299;46.084;18.762;2024-02-21T04:44:29;7.15;;;1.33;;
76459;SDS011;65299;46.084;18.762;2024-02-21T04:47:30;4.67;;;1.00;;
76459;SDS011;65299;46.084;18.762;2024-02-21T04:50:30;2.63;;;1.20;;
76459;SDS011;65299;46.084;18.762;2024-02-21T04:53:30;3.37;;;1.03;;
76459;SDS011;65299;46.084;18.762;2024-02-21T04:56:31;3.92;;;0.93;;
76459;SDS011;65299;46.084;18.762;2024-02-21T04:59:31;2.33;;;1.10;;
76459;SDS011;65299;46.084;18.762;2024-02-21T05:02:32;2.20;;;1.03;;
76459;SDS011;65299;46.084;18.762;2024-02-21T05:05:32;2.70;;;1.20;;
76459;SDS011;65299;46.084;18.762;2024-02-21T05:08:33;3.63;;;1.10;;
76459;SDS011;65299;46.084;18.762;2024-02-21T05:11:33;3.50;;;1.00;;
76459;SDS011;65299;46.084;18.762;2024-02-21T05:14:33;6.80;;;1.83;;
76459;SDS011;65299;46.084;18.762;2024-02-21T05:17:34;4.82;;;1.05;;
76459;SDS011;65299;46.084;18.762;2024-02-21T05:20:34;4.60;;;1.00;;
76459;SDS011;65299;46.084;18.762;2024-02-21T05:23:35;3.43;;;0.30;;
76459;SDS011;65299;46.084;18.762;2024-02-21T05:26:35;2.33;;;0.47;;
76459;SDS011;65299;46.084;18.762;2024-02-21T05:29:36;3.03;;;0.70;;
76459;SDS011;65299;46.084;18.762;2024-02-21T05:32:36;1.50;;;0.37;;
76459;SDS011;65299;46.084;18.762;2024-02-21T05:35:36;7.93;;;0.50;;
76459;SDS011;65299;46.084;18.762;2024-02-21T05:38:37;4.40;;;0.70;;
76459;SDS011;65299;46.084;18.762;2024-02-21T05:41:37;1.45;;;0.55;;
76459;SDS011;65299;46.084;18.762;2024-02-21T05:44:38;4.20;;;0.50;;
76459;SDS011;65299;46.084;18.762;2024-02-21T05:47:38;1.20;;;0.30;;
76459;SDS011;65299;46.084;18.762;2024-02-21T05:50:38;3.93;;;0.73;;
76459;SDS011;65299;46.084;18.762;2024-02-21T05:53:40;3.33;;;1.60;;
76459;SDS011;65299;46.084;18.762;2024-02-21T05:56:44;3.77;;;1.20;;
76459;SDS011;65299;46.084;18.762;2024-02-21T05:59:45;6.57;;;1.90;;
76459;SDS011;65299;46.084;18.762;2024-02-21T06:02:46;2.87;;;1.20;;
76459;SDS011;65299;46.084;18.762;2024-02-21T06:05:46;4.00;;;1.10;;
76459;SDS011;65299;46.084;18.762;2024-02-21T06:08:46;4.57;;;1.00;;
76459;SDS011;65299;46.084;18.762;2024-02-21T06:11:47;4.07;;;0.97;;
76459;SDS011;65299;46.084;18.762;2024-02-21T06:14:49;2.33;;;0.90;;
76459;SDS011;65299;46.084;18.762;2024-02-21T06:17:49;7.77;;;1.50;;
76459;SDS011;65299;46.084;18.762;2024-02-21T06:20:49;2.80;;;1.20;;
76459;SDS011;65299;46.084;18.762;2024-02-21T06:23:50;4.80;;;1.42;;
76459;SDS011;65299;46.084;18.762;2024-02-21T06:26:50;6.00;;;1.70;;
76459;SDS011;65299;46.084;18.762;2024-02-21T06:29:51;5.53;;;1.47;;
76459;SDS011;65299;46.084;18.762;2024-02-21T06:32:51;4.10;;;1.03;;
76459;SDS011;65299;46.084;18.762;2024-02-21T06:35:52;8.00;;;1.80;;
76459;SDS011;65299;46.084;18.762;2024-02-21T06:38:55;5.95;;;1.30;;
76459;SDS011;65299;46.084;18.762;2024-02-21T06:41:56;5.27;;;1.00;;
76459;SDS011;65299;46.084;18.762;2024-02-21T06:44:56;5.20;;;1.40;;
76459;SDS011;65299;46.084;18.762;2024-02-21T06:47:57;5.22;;;1.48;;
76459;SDS011;65299;46.084;18.762;2024-02-21T06:50:57;6.07;;;1.20;;
76459;SDS011;65299;46.084;18.762;2024-02-21T06:53:58;7.97;;;1.40;;
76459;SDS011;65299;46.084;18.762;2024-02-21T06:56:58;5.43;;;1.00;;
76459;SDS011;65299;46.084;18.762;2024-02-21T06:59:59;7.10;;;1.57;;
76459;SDS011;65299;46.084;18.762;2024-02-21T07:02:59;8.87;;;1.77;;
76459;SDS011;65299;46.084;18.762;2024-02-21T07:06:00;3.13;;;1.20;;
76459;SDS011;65299;46.084;18.762;2024-02-21T07:09:01;5.27;;;1.80;;
76459;SDS011;65299;46.084;18.762;2024-02-21T07:12:01;5.38;;;1.35;;
76459;SDS011;65299;46.084;18.762;2024-02-21T07:15:04;10.13;;;2.03;;
76459;SDS011;65299;46.084;18.762;2024-02-21T07:18:05;7.03;;;1.23;;
76459;SDS011;65299;46.084;18.762;2024-02-21T07:21:05;4.67;;;1.20;;
76459;SDS011;65299;46.084;18.762;2024-02-21T07:24:06;6.15;;;2.00;;
76459;SDS011;65299;46.084;18.762;2024-02-21T07:27:06;6.70;;;1.83;;
76459;SDS011;65299;46.084;18.762;2024-02-21T07:30:07;13.47;;;4.57;;
76459;SDS011;65299;46.084;18.762;2024-02-21T07:33:07;14.38;;;5.20;;
76459;SDS011;65299;46.084;18.762;2024-02-21T07:36:10;11.17;;;5.00;;
76459;SDS011;65299;46.084;18.762;2024-02-21T07:39:11;12.20;;;4.38;;
76459;SDS011;65299;46.084;18.762;2024-02-21T07:42:11;13.87;;;4.33;;
76459;SDS011;65299;46.084;18.762;2024-02-21T07:45:12;11.73;;;4.07;;
76459;SDS011;65299;46.084;18.762;2024-02-21T07:48:12;10.33;;;2.53;;
76459;SDS011;65299;46.084;18.762;2024-02-21T07:51:13;5.53;;;1.50;;
76459;SDS011;65299;46.084;18.762;2024-02-21T07:54:13;4.20;;;1.00;;
76459;SDS011;65299;46.084;18.762;2024-02-21T07:57:14;5.50;;;1.00;;
76459;SDS011;65299;46.084;18.762;2024-02-21T08:00:14;4.10;;;1.57;;
76459;SDS011;65299;46.084;18.762;2024-02-21T08:03:19;5.25;;;1.80;;
76459;SDS011;65299;46.084;18.762;2024-02-21T08:06:20;3.58;;;1.42;;
76459;SDS011;65299;46.084;18.762;2024-02-21T08:09:24;3.27;;;1.00;;
76459;SDS011;65299;46.084;18.762;2024-02-21T08:12:24;3.70;;;1.35;;
76459;SDS011;65299;46.084;18.762;2024-02-21T08:15:24;5.57;;;1.67;;
76459;SDS011;65299;46.084;18.762;2024-02-21T08:18:29;5.93;;;1.65;;
76459;SDS011;65299;46.084;18.762;2024-02-21T08:21:29;6.73;;;1.57;;
76459;SDS011;65299;46.084;18.762;2024-02-21T08:24:30;3.37;;;1.40;;
76459;SDS011;65299;46.084;18.762;2024-02-21T08:27:30;4.32;;;1.40;;
76459;SDS011;65299;46.084;18.762;2024-02-21T08:30:31;2.30;;;0.70;;
76459;SDS011;65299;46.084;18.762;2024-02-21T08:33:31;3.90;;;1.30;;
76459;SDS011;65299;46.084;18.762;2024-02-21T08:36:32;5.18;;;1.67;;
76459;SDS011;65299;46.084;18.762;2024-02-21T08:39:34;3.87;;;1.50;;
76459;SDS011;65299;46.084;18.762;2024-02-21T08:42:35;7.35;;;1.10;;
76459;SDS011;65299;46.084;18.762;2024-02-21T08:45:37;7.07;;;1.33;;
76459;SDS011;65299;46.084;18.762;2024-02-21T08:48:37;2.88;;;0.95;;
76459;SDS011;65299;46.084;18.762;2024-02-21T08:51:37;4.13;;;1.10;;
76459;SDS011;65299;46.084;18.762;2024-02-21T08:54:38;4.60;;;1.50;;
76459;SDS011;65299;46.084;18.762;2024-02-21T08:57:38;4.87;;;1.57;;
76459;SDS011;65299;46.084;18.762;2024-02-21T09:00:39;6.20;;;1.77;;
76459;SDS011;65299;46.084;18.762;2024-02-21T09:03:39;6.97;;;1.20;;
76459;SDS011;65299;46.084;18.762;2024-02-21T09:06:39;4.47;;;1.30;;
76459;SDS011;65299;46.084;18.762;2024-02-21T09:09:42;5.18;;;1.40;;
76459;SDS011;65299;46.084;18.762;2024-02-21T09:12:42;7.80;;;1.80;;
76459;SDS011;65299;46.084;18.762;2024-02-21T09:15:43;5.93;;;1.90;;
76459;SDS011;65299;46.084;18.762;2024-02-21T09:18:44;6.23;;;2.33;;
76459;SDS011;65299;46.084;18.762;2024-02-21T09:21:44;12.00;;;4.30;;
76459;SDS011;65299;46.084;18.762;2024-02-21T09:24:45;5.37;;;1.93;;
76459;SDS011;65299;46.084;18.762;2024-02-21T09:27:45;17.43;;;6.73;;
76459;SDS011;65299;46.084;18.762;2024-02-21T09:30:46;13.20;;;4.53;;
76459;SDS011;65299;46.084;18.762;2024-02-21T09:33:46;13.43;;;4.10;;
76459;SDS011;65299;46.084;18.762;2024-02-21T09:36:46;19.15;;;6.28;;
76459;SDS011;65299;46.084;18.762;2024-02-21T09:39:47;7.63;;;2.17;;
76459;SDS011;65299;46.084;18.762;2024-02-21T09:42:48;10.20;;;3.47;;
76459;SDS011;65299;46.084;18.762;2024-02-21T09:45:48;4.18;;;1.60;;
76459;SDS011;65299;46.084;18.762;2024-02-21T09:49:02;3.78;;;1.42;;
76459;SDS011;65299;46.084;18.762;2024-02-21T09:52:11;4.60;;;0.80;;
76459;SDS011;65299;46.084;18.762;2024-02-21T09:55:14;5.38;;;1.00;;
76459;SDS011;65299;46.084;18.762;2024-02-21T09:58:16;3.90;;;1.00;;
76459;SDS011;65299;46.084;18.762;2024-02-21T10:01:16;4.10;;;1.05;;
76459;SDS011;65299;46.084;18.762;2024-02-21T10:04:17;5.97;;;0.90;;
76459;SDS011;65299;46.084;18.762;2024-02-21T10:07:18;5.03;;;1.50;;
76459;SDS011;65299;46.084;18.762;2024-02-21T10:10:23;3.60;;;0.70;;
76459;SDS011;65299;46.084;18.762;2024-02-21T10:13:24;4.80;;;0.87;;
76459;SDS011;65299;46.084;18.762;2024-02-21T10:16:30;4.32;;;1.20;;
76459;SDS011;65299;46.084;18.762;2024-02-21T10:19:34;4.97;;;1.00;;
76459;SDS011;65299;46.084;18.762;2024-02-21T10:22:38;3.50;;;1.23;;
76459;SDS011;65299;46.084;18.762;2024-02-21T10:25:39;4.75;;;1.02;;
76459;SDS011;65299;46.084;18.762;2024-02-21T10:28:45;7.27;;;0.77;;
76459;SDS011;65299;46.084;18.762;2024-02-21T10:31:52;6.50;;;1.95;;
76459;SDS011;65299;46.084;18.762;2024-02-21T10:35:03;8.93;;;2.70;;
76459;SDS011;65299;46.084;18.762;2024-02-21T10:38:08;6.28;;;1.42;;
76459;SDS011;65299;46.084;18.762;2024-02-21T10:41:09;10.10;;;3.10;;
76459;SDS011;65299;46.084;18.762;2024-02-21T10:44:15;4.80;;;1.90;;
76459;SDS011;65299;46.084;18.762;2024-02-21T10:47:18;4.38;;;1.38;;
76459;SDS011;65299;46.084;18.762;2024-02-21T10:50:24;5.03;;;1.40;;
76459;SDS011;65299;46.084;18.762;2024-02-21T10:56:52;1.88;;;0.63;;
76459;SDS011;65299;46.084;18.762;2024-02-21T10:59:56;6.50;;;0.60;;
76459;SDS011;65299;46.084;18.762;2024-02-21T11:02:59;4.10;;;1.15;;
76459;SDS011;65299;46.084;18.762;2024-02-21T11:06:00;5.80;;;1.40;;
76459;SDS011;65299;46.084;18.762;2024-02-21T11:09:04;4.03;;;0.80;;
76459;SDS011;65299;46.084;18.762;2024-02-21T11:12:06;2.67;;;0.93;;
76459;SDS011;65299;46.084;18.762;2024-02-21T11:15:07;7.85;;;1.27;;
76459;SDS011;65299;46.084;18.762;2024-02-21T11:18:10;4.20;;;1.13;;
76459;SDS011;65299;46.084;18.762;2024-02-21T11:21:10;4.85;;;1.00;;
76459;SDS011;65299;46.084;18.762;2024-02-21T11:24:10;4.33;;;0.80;;
76459;SDS011;65299;46.084;18.762;2024-02-21T11:27:11;4.00;;;0.60;;
76459;SDS011;65299;46.084;18.762;2024-02-21T11:30:13;2.63;;;0.70;;
76459;SDS011;65299;46.084;18.762;2024-02-21T11:33:14;5.10;;;0.95;;
76459;SDS011;65299;46.084;18.762;2024-02-21T11:36:26;1.40;;;0.30;;
76459;SDS011;65299;46.084;18.762;2024-02-21T11:39:27;3.65;;;1.00;;
76459;SDS011;65299;46.084;18.762;2024-02-21T11:42:28;3.13;;;1.30;;
76459;SDS011;65299;46.084;18.762;2024-02-21T11:45:29;6.53;;;1.60;;
76459;SDS011;65299;46.084;18.762;2024-02-21T11:48:30;5.75;;;1.42;;
76459;SDS011;65299;46.084;18.762;2024-02-21T11:51:32;3.07;;;0.80;;
76459;SDS011;65299;46.084;18.762;2024-02-21T11:54:32;2.50;;;0.82;;
76459;SDS011;65299;46.084;18.762;2024-02-21T11:57:33;5.53;;;1.33;;
76459;SDS011;65299;46.084;18.762;2024-02-21T12:00:35;6.30;;;1.20;;
76459;SDS011;65299;46.084;18.762;2024-02-21T12:03:36;3.10;;;0.80;;
76459;SDS011;65299;46.084;18.762;2024-02-21T12:06:37;6.32;;;1.30;;
76459;SDS011;65299;46.084;18.762;2024-02-21T12:09:41;4.28;;;0.90;;
76459;SDS011;65299;46.084;18.762;2024-02-21T12:12:41;8.60;;;1.77;;
76459;SDS011;65299;46.084;18.762;2024-02-21T12:15:42;2.97;;;0.70;;
76459;SDS011;65299;46.084;18.762;2024-02-21T12:18:48;5.27;;;0.53;;
76459;SDS011;65299;46.084;18.762;2024-02-21T12:21:49;4.03;;;0.70;;
76459;SDS011;65299;46.084;18.762;2024-02-21T12:24:50;6.20;;;1.10;;
76459;SDS011;65299;46.084;18.762;2024-02-21T12:27:50;3.92;;;0.60;;
76459;SDS011;65299;46.084;18.762;2024-02-21T12:30:51;3.93;;;0.73;;
76459;SDS011;65299;46.084;18.762;2024-02-21T12:33:52;1.80;;;0.50;;
76459;SDS011;65299;46.084;18.762;2024-02-21T12:36:53;2.47;;;1.00;;
76459;SDS011;65299;46.084;18.762;2024-02-21T12:39:54;3.47;;;0.80;;
76459;SDS011;65299;46.084;18.762;2024-02-21T12:42:54;3.30;;;1.13;;
76459;SDS011;65299;46.084;18.762;2024-02-21T12:45:54;5.37;;;0.83;;
76459;SDS011;65299;46.084;18.762;2024-02-21T12:48:55;3.95;;;0.60;;
76459;SDS011;65299;46.084;18.762;2024-02-21T12:51:55;6.20;;;2.20;;
76459;SDS011;65299;46.084;18.762;2024-02-21T12:54:56;3.73;;;1.00;;
76459;SDS011;65299;46.084;18.762;2024-02-21T12:58:00;4.93;;;0.68;;
76459;SDS011;65299;46.084;18.762;2024-02-21T13:01:04;5.20;;;1.33;;
76459;SDS011;65299;46.084;18.762;2024-02-21T13:04:05;2.80;;;0.90;;
76459;SDS011;65299;46.084;18.762;2024-02-21T13:07:05;4.27;;;1.17;;
76459;SDS011;65299;46.084;18.762;2024-02-21T13:10:06;2.97;;;0.60;;
76459;SDS011;65299;46.084;18.762;2024-02-21T13:13:08;1.80;;;0.60;;
76459;SDS011;65299;46.084;18.762;2024-02-21T13:16:08;4.97;;;1.87;;
76459;SDS011;65299;46.084;18.762;2024-02-21T13:19:10;3.80;;;1.15;;
76459;SDS011;65299;46.084;18.762;2024-02-21T13:22:13;4.83;;;1.20;;
76459;SDS011;65299;46.084;18.762;2024-02-21T13:25:15;5.07;;;1.73;;
76459;SDS011;65299;46.084;18.762;2024-02-21T13:28:18;3.83;;;0.95;;
76459;SDS011;65299;46.084;18.762;2024-02-21T13:31:18;2.90;;;1.20;;
76459;SDS011;65299;46.084;18.762;2024-02-21T13:34:19;1.77;;;0.88;;
76459;SDS011;65299;46.084;18.762;2024-02-21T13:37:25;3.08;;;0.77;;
76459;SDS011;65299;46.084;18.762;2024-02-21T13:40:28;4.13;;;0.97;;
76459;SDS011;65299;46.084;18.762;2024-02-21T13:43:29;2.35;;;0.73;;
76459;SDS011;65299;46.084;18.762;2024-02-21T13:46:31;3.45;;;0.70;;
76459;SDS011;65299;46.084;18.762;2024-02-21T13:49:31;5.03;;;1.53;;
76459;SDS011;65299;46.084;18.762;2024-02-21T13:52:31;5.63;;;2.10;;
76459;SDS011;65299;46.084;18.762;2024-02-21T13:55:33;9.32;;;2.75;;
76459;SDS011;65299;46.084;18.762;2024-02-21T13:58:34;6.47;;;2.10;;
76459;SDS011;65299;46.084;18.762;2024-02-21T14:01:35;5.72;;;1.63;;
76459;SDS011;65299;46.084;18.762;2024-02-21T14:04:36;4.57;;;1.90;;
76459;SDS011;65299;46.084;18.762;2024-02-21T14:07:37;6.03;;;1.48;;
76459;SDS011;65299;46.084;18.762;2024-02-21T14:10:38;3.67;;;1.10;;
76459;SDS011;65299;46.084;18.762;2024-02-21T14:13:38;3.92;;;1.10;;
76459;SDS011;65299;46.084;18.762;2024-02-21T14:16:39;2.57;;;1.03;;
76459;SDS011;65299;46.084;18.762;2024-02-21T14:19:39;4.97;;;1.87;;
76459;SDS011;65299;46.084;18.762;2024-02-21T14:22:40;8.33;;;2.20;;
76459;SDS011;65299;46.084;18.762;2024-02-21T14:25:40;8.30;;;1.67;;
76459;SDS011;65299;46.084;18.762;2024-02-21T14:28:42;14.40;;;4.97;;
76459;SDS011;65299;46.084;18.762;2024-02-21T14:31:42;4.53;;;1.90;;
76459;SDS011;65299;46.084;18.762;2024-02-21T14:34:43;8.77;;;3.20;;
76459;SDS011;65299;46.084;18.762;2024-02-21T14:37:43;4.17;;;2.10;;
76459;SDS011;65299;46.084;18.762;2024-02-21T14:40:44;7.10;;;3.10;;
76459;SDS011;65299;46.084;18.762;2024-02-21T14:43:45;5.65;;;1.83;;
76459;SDS011;65299;46.084;18.762;2024-02-21T14:46:48;3.40;;;0.90;;
76459;SDS011;65299;46.084;18.762;2024-02-21T14:49:49;6.75;;;2.88;;
76459;SDS011;65299;46.084;18.762;2024-02-21T14:52:49;4.57;;;2.10;;
76459;SDS011;65299;46.084;18.762;2024-02-21T14:55:50;6.47;;;2.53;;
76459;SDS011;65299;46.084;18.762;2024-02-21T14:58:51;3.30;;;1.40;;
76459;SDS011;65299;46.084;18.762;2024-02-21T15:01:51;5.53;;;1.53;;
76459;SDS011;65299;46.084;18.762;2024-02-21T15:04:51;3.77;;;1.30;;
76459;SDS011;65299;46.084;18.762;2024-02-21T15:07:52;3.33;;;1.45;;
76459;SDS011;65299;46.084;18.762;2024-02-21T15:10:52;3.57;;;1.37;;
76459;SDS011;65299;46.084;18.762;2024-02-21T15:13:53;4.07;;;1.13;;
76459;SDS011;65299;46.084;18.762;2024-02-21T15:16:53;13.47;;;5.93;;
76459;SDS011;65299;46.084;18.762;2024-02-21T15:19:54;8.57;;;2.80;;
76459;SDS011;65299;46.084;18.762;2024-02-21T15:22:55;6.03;;;2.67;;
76459;SDS011;65299;46.084;18.762;2024-02-21T15:25:55;7.20;;;3.13;;
76459;SDS011;65299;46.084;18.762;2024-02-21T15:28:56;5.23;;;2.33;;
76459;SDS011;65299;46.084;18.762;2024-02-21T15:31:56;5.47;;;2.00;;
76459;SDS011;65299;46.084;18.762;2024-02-21T15:34:57;4.83;;;2.17;;
76459;SDS011;65299;46.084;18.762;2024-02-21T15:37:57;3.47;;;1.73;;
76459;SDS011;65299;46.084;18.762;2024-02-21T15:40:57;4.40;;;1.40;;
76459;SDS011;65299;46.084;18.762;2024-02-21T15:43:58;3.35;;;1.45;;
76459;SDS011;65299;46.084;18.762;2024-02-21T15:46:59;4.87;;;1.50;;
76459;SDS011;65299;46.084;18.762;2024-02-21T15:49:59;4.05;;;1.70;;
76459;SDS011;65299;46.084;18.762;2024-02-21T15:53:01;5.30;;;2.30;;
76459;SDS011;65299;46.084;18.762;2024-02-21T15:56:02;7.65;;;2.30;;
76459;SDS011;65299;46.084;18.762;2024-02-21T15:59:03;6.25;;;2.80;;
76459;SDS011;65299;46.084;18.762;2024-02-21T16:02:05;7.03;;;3.30;;
76459;SDS011;65299;46.084;18.762;2024-02-21T16:05:06;8.43;;;4.95;;
76459;SDS011;65299;46.084;18.762;2024-02-21T16:08:09;8.73;;;4.70;;
76459;SDS011;65299;46.084;18.762;2024-02-21T16:11:15;12.57;;;5.25;;
76459;SDS011;65299;46.084;18.762;2024-02-21T16:14:16;20.00;;;6.47;;
76459;SDS011;65299;46.084;18.762;2024-02-21T16:17:18;24.02;;;8.57;;
76459;SDS011;65299;46.084;18.762;2024-02-21T16:20:18;23.97;;;9.30;;
76459;SDS011;65299;46.084;18.762;2024-02-21T16:23:19;24.23;;;9.75;;
76459;SDS011;65299;46.084;18.762;2024-02-21T16:26:19;20.97;;;10.50;;
76459;SDS011;65299;46.084;18.762;2024-02-21T16:29:20;22.00;;;9.80;;
76459;SDS011;65299;46.084;18.762;2024-02-21T16:32:22;20.70;;;9.15;;
76459;SDS011;65299;46.084;18.762;2024-02-21T16:35:23;19.07;;;9.13;;
76459;SDS011;65299;46.084;18.762;2024-02-21T16:38:23;26.77;;;10.83;;
76459;SDS011;65299;46.084;18.762;2024-02-21T16:41:26;18.25;;;8.98;;
76459;SDS011;65299;46.084;18.762;2024-02-21T16:44:29;25.00;;;10.15;;
76459;SDS011;65299;46.084;18.762;2024-02-21T16:47:31;24.42;;;10.63;;
76459;SDS011;65299;46.084;18.762;2024-02-21T16:50:31;23.27;;;9.93;;
76459;SDS011;65299;46.084;18.762;2024-02-21T16:53:32;24.57;;;9.20;;
76459;SDS011;65299;46.084;18.762;2024-02-21T16:56:32;24.30;;;8.52;;
76459;SDS011;65299;46.084;18.762;2024-02-21T16:59:33;26.57;;;9.70;;
76459;SDS011;65299;46.084;18.762;2024-02-21T17:02:33;24.37;;;9.37;;
76459;SDS011;65299;46.084;18.762;2024-02-21T17:05:36;23.67;;;8.85;;
76459;SDS011;65299;46.084;18.762;2024-02-21T17:08:37;19.93;;;7.87;;
76459;SDS011;65299;46.084;18.762;2024-02-21T17:11:37;42.72;;;16.02;;
76459;SDS011;65299;46.084;18.762;2024-02-21T17:14:38;60.57;;;23.13;;
76459;SDS011;65299;46.084;18.762;2024-02-21T17:17:39;79.82;;;27.05;;
76459;SDS011;65299;46.084;18.762;2024-02-21T17:20:40;141.73;;;58.03;;
76459;SDS011;65299;46.084;18.762;2024-02-21T17:23:40;124.80;;;57.33;;
76459;SDS011;65299;46.084;18.762;2024-02-21T17:26:41;104.37;;;45.53;;
76459;SDS011;65299;46.084;18.762;2024-02-21T17:29:41;79.87;;;41.53;;
76459;SDS011;65299;46.084;18.762;2024-02-21T17:32:41;49.77;;;25.73;;
76459;SDS011;65299;46.084;18.762;2024-02-21T17:35:42;44.95;;;22.65;;
76459;SDS011;65299;46.084;18.762;2024-02-21T17:38:47;57.80;;;26.57;;
76459;SDS011;65299;46.084;18.762;2024-02-21T17:41:50;56.13;;;26.65;;
76459;SDS011;65299;46.084;18.762;2024-02-21T17:44:53;48.72;;;26.83;;
76459;SDS011;65299;46.084;18.762;2024-02-21T17:47:53;47.63;;;24.07;;
76459;SDS011;65299;46.084;18.762;2024-02-21T17:50:54;47.00;;;22.90;;
76459;SDS011;65299;46.084;18.762;2024-02-21T17:53:55;40.92;;;19.75;;